createdAt,value
2018-03-11T00:00:37.408Z,3.10
2018-03-11T00:03:06.132Z,3.30
2018-03-11T00:05:34.783Z,3.30
2018-03-11T00:08:03.512Z,3.40
2018-03-11T00:10:32.309Z,3.50
2018-03-11T00:13:01.011Z,3.40
2018-03-11T00:15:30.449Z,3.50
2018-03-11T00:17:59.081Z,3.50
2018-03-11T00:20:27.721Z,3.60
2018-03-11T00:22:56.382Z,3.50
2018-03-11T00:25:25.784Z,3.30
2018-03-11T00:27:55.188Z,3.20
2018-03-11T00:30:24.604Z,3.10
2018-03-11T00:32:54.016Z,3.00
2018-03-11T00:35:22.674Z,3.00
2018-03-11T00:37:51.304Z,2.90
2018-03-11T00:40:19.929Z,2.90
2018-03-11T00:42:48.575Z,2.80
2018-03-11T00:45:17.229Z,2.80
2018-03-11T00:47:46.635Z,2.80
2018-03-11T00:50:16.046Z,2.80
2018-03-11T00:52:45.444Z,2.80
2018-03-11T00:55:14.904Z,2.80
2018-03-11T00:57:43.536Z,2.70
2018-03-11T01:00:12.164Z,2.80
2018-03-11T01:02:40.832Z,2.70
2018-03-11T01:05:09.461Z,2.70
2018-03-11T01:07:38.130Z,2.60
2018-03-11T01:10:06.807Z,2.50
2018-03-11T01:12:35.606Z,2.40
2018-03-11T01:15:03.927Z,2.40
2018-03-11T01:17:32.749Z,2.40
2018-03-11T01:20:01.382Z,2.50
2018-03-11T01:22:30.056Z,2.40
2018-03-11T01:24:58.688Z,2.40
2018-03-11T01:27:28.088Z,2.30
2018-03-11T01:29:57.504Z,2.30
2018-03-11T01:32:26.133Z,2.30
2018-03-11T01:34:54.761Z,2.30
2018-03-11T01:37:24.190Z,2.30
2018-03-11T01:39:52.822Z,2.30
2018-03-11T01:42:21.454Z,2.60
2018-03-11T01:44:50.089Z,2.70
2018-03-11T01:47:18.726Z,2.70
2018-03-11T01:49:47.062Z,2.60
2018-03-11T01:52:15.701Z,2.60
2018-03-11T01:54:44.328Z,2.50
2018-03-11T01:57:12.977Z,2.40
2018-03-11T01:59:41.602Z,2.30
2018-03-11T02:02:10.271Z,2.40
2018-03-11T02:04:38.906Z,2.20
2018-03-11T02:07:08.309Z,2.30
2018-03-11T02:09:37.719Z,2.20
2018-03-11T02:12:06.036Z,2.20
2018-03-11T02:14:34.708Z,2.10
2018-03-11T02:17:03.336Z,2.10
2018-03-11T02:19:31.971Z,2.00
2018-03-11T02:22:00.732Z,1.90
2018-03-11T02:24:30.137Z,1.90
2018-03-11T02:26:58.777Z,1.90
2018-03-11T02:29:27.440Z,1.90
2018-03-11T02:31:56.074Z,1.90
2018-03-11T02:34:24.938Z,2.00
2018-03-11T02:36:53.573Z,2.00
2018-03-11T02:39:22.986Z,1.90
2018-03-11T02:41:52.424Z,1.80
2018-03-11T02:44:20.728Z,1.80
2018-03-11T02:46:49.378Z,1.80
2018-03-11T02:49:18.025Z,1.90
2018-03-11T02:51:46.678Z,1.90
2018-03-11T02:54:15.508Z,2.00
2018-03-11T02:56:44.584Z,1.80
2018-03-11T02:59:13.229Z,1.80
2018-03-11T03:01:41.870Z,1.80
2018-03-11T03:04:10.621Z,1.70
2018-03-11T03:06:39.253Z,1.60
2018-03-11T03:09:08.675Z,1.40
2018-03-11T03:11:38.297Z,1.40
2018-03-11T03:14:06.922Z,1.30
2018-03-11T03:16:35.552Z,1.30
2018-03-11T03:19:04.200Z,1.30
2018-03-11T03:21:32.864Z,1.20
2018-03-11T03:24:01.499Z,1.20
2018-03-11T03:26:30.901Z,1.20
2018-03-11T03:29:00.313Z,1.20
2018-03-11T03:31:29.712Z,1.20
2018-03-11T03:33:59.150Z,1.30
2018-03-11T03:36:27.785Z,1.30
2018-03-11T03:38:56.413Z,1.50
2018-03-11T03:41:25.048Z,1.40
2018-03-11T03:43:53.681Z,1.40
2018-03-11T03:46:22.506Z,1.30
2018-03-11T03:48:51.173Z,1.20
2018-03-11T03:51:19.856Z,1.20
2018-03-11T03:53:48.480Z,1.20
2018-03-11T03:56:17.157Z,1.30
2018-03-11T03:58:45.820Z,1.30
2018-03-11T04:01:14.480Z,1.30
2018-03-11T04:03:43.109Z,1.30
2018-03-11T04:06:11.746Z,1.30
2018-03-11T04:08:40.411Z,1.30
2018-03-11T04:11:09.830Z,1.40
2018-03-11T04:13:39.242Z,1.30
2018-03-11T04:16:07.873Z,1.30
2018-03-11T04:18:36.550Z,1.30
2018-03-11T04:21:05.188Z,1.50
2018-03-11T04:23:33.826Z,1.50
2018-03-11T04:26:02.488Z,1.40
2018-03-11T04:28:31.150Z,1.30
2018-03-11T04:31:00.580Z,1.10
2018-03-11T04:33:29.209Z,1.10
2018-03-11T04:35:57.860Z,1.10
2018-03-11T04:38:26.565Z,1.20
2018-03-11T04:40:55.205Z,1.20
2018-03-11T04:43:24.622Z,1.10
2018-03-11T04:45:53.272Z,1.10
2018-03-11T04:48:21.941Z,1.10
2018-03-11T04:50:50.564Z,1.10
2018-03-11T04:53:19.211Z,1.00
2018-03-11T04:55:47.863Z,1.00
2018-03-11T04:58:16.495Z,1.10
2018-03-11T05:00:45.176Z,1.00
2018-03-11T05:03:13.814Z,1.00
2018-03-11T05:05:42.469Z,1.00
2018-03-11T05:08:11.127Z,1.00
2018-03-11T05:10:39.778Z,1.00
2018-03-11T05:13:08.417Z,1.00
2018-03-11T05:15:37.060Z,1.10
2018-03-11T05:18:05.700Z,1.10
2018-03-11T05:20:35.118Z,1.30
2018-03-11T05:23:04.572Z,1.40
2018-03-11T05:25:33.344Z,1.40
2018-03-11T05:28:01.978Z,1.50
2018-03-11T05:30:30.650Z,1.60
2018-03-11T05:32:59.293Z,1.70
2018-03-11T05:35:27.936Z,1.50
2018-03-11T05:37:56.585Z,1.40
2018-03-11T05:40:25.233Z,1.40
2018-03-11T05:42:54.664Z,1.50
2018-03-11T05:45:23.317Z,1.50
2018-03-11T05:47:52.732Z,1.70
2018-03-11T05:50:21.372Z,1.70
2018-03-11T05:52:50.061Z,1.60
2018-03-11T05:55:18.708Z,1.50
2018-03-11T05:57:47.361Z,1.60
2018-03-11T06:00:16.798Z,1.70
2018-03-11T06:02:45.438Z,1.70
2018-03-11T06:05:14.069Z,1.70
2018-03-11T06:07:42.777Z,1.80
2018-03-11T06:10:11.408Z,1.80
2018-03-11T06:12:40.845Z,1.80
2018-03-11T06:15:09.481Z,1.80
2018-03-11T06:17:38.109Z,2.00
2018-03-11T06:20:06.772Z,1.90
2018-03-11T06:22:35.417Z,1.90
2018-03-11T06:25:03.713Z,2.00
2018-03-11T06:27:32.352Z,2.10
2018-03-11T06:30:01.001Z,2.40
2018-03-11T06:32:30.435Z,2.70
2018-03-11T06:35:00.036Z,2.70
2018-03-11T06:37:28.664Z,2.70
2018-03-11T06:39:57.304Z,2.80
2018-03-11T06:42:26.752Z,2.80
2018-03-11T06:44:55.393Z,2.80
2018-03-11T06:47:24.824Z,3.50
2018-03-11T06:49:53.510Z,3.50
2018-03-11T06:52:22.154Z,3.70
2018-03-11T06:54:50.830Z,3.80
2018-03-11T06:57:19.470Z,3.80
2018-03-11T06:59:48.133Z,4.00
2018-03-11T07:02:16.821Z,4.20
2018-03-11T07:04:46.448Z,5.40
2018-03-11T07:07:15.084Z,8.10
2018-03-11T07:09:45.982Z,11.10
2018-03-11T07:12:15.538Z,13.00
2018-03-11T07:14:46.047Z,14.20
2018-03-11T07:17:14.571Z,15.20
2018-03-11T07:19:43.832Z,16.40
2018-03-11T07:22:15.911Z,16.90
2018-03-11T07:24:46.708Z,16.80
2018-03-11T07:27:18.972Z,17.80
2018-03-11T07:29:47.536Z,17.80
2018-03-11T07:32:16.143Z,18.60
2018-03-11T07:34:44.593Z,18.90
2018-03-11T07:37:13.002Z,19.40
2018-03-11T07:39:41.405Z,19.90
2018-03-11T07:42:10.552Z,21.90
2018-03-11T07:44:38.938Z,21.80
2018-03-11T07:47:07.336Z,22.90
2018-03-11T07:49:35.737Z,23.80
2018-03-11T07:52:03.816Z,24.00
2018-03-11T07:54:32.644Z,23.30
2018-03-11T07:57:01.208Z,23.30
2018-03-11T07:59:30.352Z,22.80
2018-03-11T08:01:59.110Z,22.70
2018-03-11T08:04:27.727Z,22.10
2018-03-11T08:06:56.116Z,21.70
2018-03-11T08:09:24.504Z,22.60
2018-03-11T08:11:52.952Z,22.90
2018-03-11T08:14:21.336Z,24.40
2018-03-11T08:16:49.706Z,25.00
2018-03-11T08:19:18.104Z,25.40
2018-03-11T08:21:46.521Z,26.40
2018-03-11T08:24:15.777Z,27.70
2018-03-11T08:26:44.191Z,27.60
2018-03-11T08:29:12.600Z,28.90
2018-03-11T08:31:41.008Z,29.50
2018-03-11T08:34:09.373Z,29.80
2018-03-11T08:36:37.737Z,29.50
2018-03-11T08:39:06.950Z,30.30
2018-03-11T08:41:35.486Z,30.20
2018-03-11T08:44:04.245Z,30.90
2018-03-11T08:46:32.661Z,29.90
2018-03-11T08:49:01.040Z,28.70
2018-03-11T08:51:29.418Z,27.90
2018-03-11T08:53:57.948Z,27.00
2018-03-11T08:56:26.317Z,28.00
2018-03-11T08:58:55.488Z,29.50
2018-03-11T09:01:23.878Z,29.50
2018-03-11T09:03:52.245Z,29.50
2018-03-11T09:06:20.647Z,29.60
2018-03-11T09:08:49.845Z,28.30
2018-03-11T09:11:19.047Z,28.00
2018-03-11T09:13:47.484Z,28.00
2018-03-11T09:16:15.848Z,27.40
2018-03-11T09:18:44.245Z,27.50
2018-03-11T09:21:12.416Z,27.50
2018-03-11T09:23:41.544Z,27.30
2018-03-11T09:26:09.344Z,27.30
2018-03-11T09:28:37.821Z,25.30
2018-03-11T09:31:06.204Z,23.30
2018-03-11T09:33:34.684Z,20.70
2018-03-11T09:36:03.913Z,20.30
2018-03-11T09:38:32.283Z,20.30
2018-03-11T09:41:00.656Z,22.00
2018-03-11T09:43:29.052Z,23.30
2018-03-11T09:45:57.435Z,23.50
2018-03-11T09:48:25.807Z,22.70
2018-03-11T09:50:54.266Z,20.60
2018-03-11T09:53:23.432Z,18.80
2018-03-11T09:55:51.836Z,18.70
2018-03-11T09:58:21.025Z,18.20
2018-03-11T10:00:49.460Z,18.10
2018-03-11T10:03:17.917Z,18.20
2018-03-11T10:05:46.384Z,18.10
2018-03-11T10:08:15.516Z,18.00
2018-03-11T10:10:43.895Z,17.90
2018-03-11T10:13:12.317Z,17.90
2018-03-11T10:15:40.693Z,17.80
2018-03-11T10:18:09.097Z,17.10
2018-03-11T10:20:37.974Z,17.10
2018-03-11T10:23:06.377Z,17.10
2018-03-11T10:25:35.320Z,18.10
2018-03-11T10:28:04.464Z,17.90
2018-03-11T10:30:33.633Z,17.70
2018-03-11T10:33:02.045Z,17.60
2018-03-11T10:35:30.492Z,17.50
2018-03-11T10:37:59.045Z,17.40
2018-03-11T10:40:27.412Z,17.30
2018-03-11T10:42:55.790Z,17.10
2018-03-11T10:45:24.194Z,16.90
2018-03-11T10:47:52.560Z,16.70
2018-03-11T10:50:20.928Z,16.60
2018-03-11T10:52:49.324Z,16.40
2018-03-11T10:55:17.690Z,16.20
2018-03-11T10:57:46.064Z,16.30
2018-03-11T11:00:14.277Z,16.40
2018-03-11T11:02:42.452Z,16.40
2018-03-11T11:05:10.653Z,17.00
2018-03-11T11:07:39.065Z,17.30
2018-03-11T11:10:07.441Z,17.30
2018-03-11T11:12:36.667Z,17.70
2018-03-11T11:15:05.092Z,17.70
2018-03-11T11:17:33.498Z,17.50
2018-03-11T11:20:01.880Z,17.00
2018-03-11T11:22:31.031Z,17.60
2018-03-11T11:24:59.426Z,17.60
2018-03-11T11:27:27.805Z,18.00
2018-03-11T11:29:56.185Z,18.40
2018-03-11T11:32:24.594Z,19.00
2018-03-11T11:34:53.742Z,18.50
2018-03-11T11:37:22.160Z,18.40
2018-03-11T11:39:50.553Z,18.00
2018-03-11T11:42:19.704Z,17.50
2018-03-11T11:44:48.083Z,17.50
2018-03-11T11:47:16.517Z,17.00
2018-03-11T11:49:44.897Z,16.50
2018-03-11T11:52:14.101Z,16.10
2018-03-11T11:54:42.518Z,16.00
2018-03-11T11:57:11.001Z,16.10
2018-03-11T11:59:39.433Z,16.20
2018-03-11T12:02:08.649Z,16.30
2018-03-11T12:04:37.080Z,16.30
2018-03-11T12:07:05.655Z,16.30
2018-03-11T12:09:34.516Z,16.00
2018-03-11T12:12:02.965Z,15.80
2018-03-11T12:14:31.961Z,15.60
2018-03-11T12:17:01.127Z,15.80
2018-03-11T12:19:29.573Z,15.70
2018-03-11T12:21:58.016Z,15.70
2018-03-11T12:24:27.196Z,15.70
2018-03-11T12:26:55.647Z,15.80
2018-03-11T12:29:24.030Z,15.80
2018-03-11T12:31:52.476Z,15.90
2018-03-11T12:34:21.713Z,16.00
2018-03-11T12:36:50.354Z,16.00
2018-03-11T12:39:20.414Z,15.70
2018-03-11T12:41:50.314Z,15.70
2018-03-11T12:44:18.787Z,15.50
2018-03-11T12:46:47.981Z,15.10
2018-03-11T12:49:17.191Z,15.10
2018-03-11T12:51:45.931Z,15.10
2018-03-11T12:54:14.187Z,15.10
2018-03-11T12:56:42.578Z,15.00
2018-03-11T12:59:10.981Z,15.00
2018-03-11T13:01:39.935Z,15.10
2018-03-11T13:04:09.623Z,15.50
2018-03-11T13:06:38.657Z,15.50
2018-03-11T13:09:07.539Z,15.70
2018-03-11T13:11:36.779Z,16.10
2018-03-11T13:14:05.670Z,16.10
2018-03-11T13:16:34.493Z,16.20
2018-03-11T13:19:03.418Z,16.10
2018-03-11T13:21:36.120Z,15.60
2018-03-11T13:24:05.970Z,15.60
2018-03-11T13:26:35.342Z,15.40
2018-03-11T13:29:05.065Z,15.10
2018-03-11T13:31:33.940Z,14.90
2018-03-11T13:34:14.912Z,14.70
2018-03-11T13:36:43.918Z,14.70
2018-03-11T13:39:24.407Z,14.50
2018-03-11T13:41:53.296Z,14.30
2018-03-11T13:44:22.271Z,14.20
2018-03-11T13:47:02.542Z,14.10
2018-03-11T13:49:31.254Z,14.10
2018-03-11T13:52:11.042Z,14.40
2018-03-11T13:54:41.095Z,14.60
2018-03-11T13:57:32.878Z,14.90
2018-03-11T14:00:01.980Z,15.10
2018-03-11T14:02:31.626Z,14.90
2018-03-11T14:05:01.275Z,15.20
2018-03-11T14:07:31.024Z,15.50
2018-03-11T14:10:00.212Z,15.90
2018-03-11T14:12:29.112Z,16.50
2018-03-11T14:15:00.438Z,16.70
2018-03-11T14:17:30.189Z,16.60
2018-03-11T14:19:59.075Z,16.60
2018-03-11T14:22:28.616Z,16.10
2018-03-11T14:24:58.467Z,15.50
2018-03-11T14:27:27.593Z,14.90
2018-03-11T14:29:56.473Z,14.70
2018-03-11T14:32:26.171Z,14.80
2018-03-11T14:34:55.896Z,14.70
2018-03-11T14:37:26.738Z,14.60
2018-03-11T14:39:55.612Z,14.60
2018-03-11T14:42:24.805Z,14.60
2018-03-11T14:44:53.714Z,14.40
2018-03-11T14:47:23.729Z,14.00
2018-03-11T14:49:53.974Z,14.00
2018-03-11T14:52:24.109Z,13.70
2018-03-11T14:54:52.851Z,13.40
2018-03-11T14:57:21.560Z,13.30
2018-03-11T14:59:50.348Z,13.10
2018-03-11T15:02:18.857Z,12.90
2018-03-11T15:04:47.663Z,12.70
2018-03-11T15:07:17.173Z,12.60
2018-03-11T15:09:46.179Z,12.40
2018-03-11T15:12:15.172Z,12.30
2018-03-11T15:14:43.842Z,12.20
2018-03-11T15:17:12.690Z,12.10
2018-03-11T15:19:41.432Z,12.00
2018-03-11T15:22:10.946Z,11.90
2018-03-11T15:24:39.359Z,11.70
2018-03-11T15:27:07.796Z,11.70
2018-03-11T15:29:37.000Z,11.60
2018-03-11T15:32:06.144Z,11.60
2018-03-11T15:34:34.519Z,11.50
2018-03-11T15:37:03.424Z,11.50
2018-03-11T15:39:31.862Z,11.50
2018-03-11T15:42:00.246Z,11.40
2018-03-11T15:44:28.637Z,11.40
2018-03-11T15:46:57.019Z,11.40
2018-03-11T15:49:25.424Z,11.30
2018-03-11T15:51:55.548Z,11.30
2018-03-11T15:54:23.966Z,11.30
2018-03-11T15:56:54.181Z,11.10
2018-03-11T15:59:22.557Z,11.10
2018-03-11T16:01:52.912Z,11.20
2018-03-11T16:04:21.606Z,11.00
2018-03-11T16:06:50.146Z,10.90
2018-03-11T16:09:19.324Z,10.40
2018-03-11T16:11:47.762Z,10.40
2018-03-11T16:14:17.913Z,10.30
2018-03-11T16:16:46.337Z,10.20
2018-03-11T16:19:14.945Z,10.10
2018-03-11T16:21:43.403Z,10.10
2018-03-11T16:24:12.138Z,10.10
2018-03-11T16:26:40.649Z,10.00
2018-03-11T16:29:10.292Z,9.80
2018-03-11T16:31:39.494Z,9.70
2018-03-11T16:34:08.163Z,9.60
2018-03-11T16:36:37.425Z,9.50
2018-03-11T16:39:05.308Z,9.40
2018-03-11T16:41:33.813Z,9.40
2018-03-11T16:44:02.199Z,9.30
2018-03-11T16:46:30.918Z,9.30
2018-03-11T16:49:04.103Z,9.30
2018-03-11T16:52:09.561Z,9.20
2018-03-11T16:54:37.990Z,9.10
2018-03-11T16:57:06.669Z,9.20
2018-03-11T16:59:38.129Z,9.10
2018-03-11T17:02:06.529Z,9.00
2018-03-11T17:04:35.346Z,8.90
2018-03-11T17:07:04.067Z,8.80
2018-03-11T17:09:33.481Z,8.80
2018-03-11T17:12:02.193Z,8.80
2018-03-11T17:14:30.905Z,8.80
2018-03-11T17:16:59.596Z,8.70
2018-03-11T17:19:28.076Z,8.60
2018-03-11T17:21:56.760Z,8.50
2018-03-11T17:24:25.487Z,8.40
2018-03-11T17:26:54.941Z,8.40
2018-03-11T17:29:23.646Z,8.30
2018-03-11T17:31:52.552Z,8.40
2018-03-11T17:34:21.222Z,8.40
2018-03-11T17:36:49.931Z,8.40
2018-03-11T17:39:19.375Z,8.40
2018-03-11T17:41:48.104Z,8.40
2018-03-11T17:44:16.766Z,8.20
2018-03-11T17:46:46.300Z,8.00
2018-03-11T17:49:15.037Z,7.90
2018-03-11T17:51:43.769Z,7.90
2018-03-11T17:54:12.431Z,7.90
2018-03-11T17:56:41.114Z,7.80
2018-03-11T17:59:09.771Z,7.70
2018-03-11T18:01:39.188Z,7.60
2018-03-11T18:04:07.551Z,7.60
2018-03-11T18:06:37.076Z,7.50
2018-03-11T18:09:05.061Z,7.50
2018-03-11T18:11:33.716Z,7.50
2018-03-11T18:14:02.373Z,7.40
2018-03-11T18:16:31.034Z,7.40
2018-03-11T18:18:59.706Z,7.50
2018-03-11T18:21:28.348Z,7.60
2018-03-11T18:23:56.984Z,7.50
2018-03-11T18:26:25.629Z,7.40
2018-03-11T18:28:54.284Z,7.40
2018-03-11T18:31:22.933Z,7.50
2018-03-11T18:33:51.594Z,7.50
2018-03-11T18:36:20.243Z,7.40
2018-03-11T18:38:48.872Z,7.40
2018-03-11T18:41:17.526Z,7.40
2018-03-11T18:43:46.166Z,7.40
2018-03-11T18:46:14.805Z,7.40
2018-03-11T18:48:43.672Z,7.20
2018-03-11T18:51:12.349Z,7.20
2018-03-11T18:53:41.017Z,7.10
2018-03-11T18:56:09.691Z,7.10
2018-03-11T18:58:38.321Z,7.00
2018-03-11T19:01:06.997Z,7.00
2018-03-11T19:03:35.758Z,7.00
2018-03-11T19:06:04.573Z,6.90
2018-03-11T19:08:33.266Z,6.90
2018-03-11T19:11:01.968Z,6.80
2018-03-11T19:13:30.648Z,6.80
2018-03-11T19:15:59.340Z,6.70
2018-03-11T19:18:27.981Z,6.70
2018-03-11T19:20:56.612Z,6.70
2018-03-11T19:23:25.313Z,6.70
2018-03-11T19:25:53.985Z,6.70
2018-03-11T19:28:22.673Z,6.70
2018-03-11T19:30:51.319Z,6.90
2018-03-11T19:33:19.970Z,6.80
2018-03-11T19:35:48.638Z,6.70
2018-03-11T19:38:17.284Z,6.80
2018-03-11T19:40:45.925Z,6.90
2018-03-11T19:43:14.613Z,7.00
2018-03-11T19:45:43.393Z,6.90
2018-03-11T19:48:12.047Z,6.90
2018-03-11T19:50:40.717Z,6.90
2018-03-11T19:53:09.351Z,6.90
2018-03-11T19:55:37.988Z,6.90
2018-03-11T19:58:06.673Z,6.90
2018-03-11T20:00:35.299Z,7.00
2018-03-11T20:03:03.933Z,7.00
2018-03-11T20:05:33.364Z,7.00
2018-03-11T20:08:01.989Z,7.00
2018-03-11T20:10:30.653Z,7.00
2018-03-11T20:12:59.121Z,7.00
2018-03-11T20:15:27.777Z,6.90
2018-03-11T20:17:57.171Z,6.90
2018-03-11T20:20:25.813Z,6.90
2018-03-11T20:22:54.481Z,6.80
2018-03-11T20:25:23.159Z,6.90
2018-03-11T20:27:52.045Z,6.80
2018-03-11T20:30:20.684Z,6.80
2018-03-11T20:32:49.504Z,6.80
2018-03-11T20:35:19.074Z,6.90
2018-03-11T20:37:47.733Z,6.90
2018-03-11T20:40:16.367Z,6.90
2018-03-11T20:42:45.049Z,7.00
2018-03-11T20:45:13.722Z,6.90
2018-03-11T20:47:42.380Z,6.90
2018-03-11T20:50:11.032Z,6.90
2018-03-11T20:52:40.448Z,6.90
2018-03-11T20:55:09.250Z,6.90
2018-03-11T20:57:39.662Z,7.00
2018-03-11T21:00:09.056Z,7.00
2018-03-11T21:02:38.615Z,7.00
2018-03-11T21:05:07.280Z,7.00
2018-03-11T21:07:35.960Z,7.00
2018-03-11T21:10:03.946Z,6.90
2018-03-11T21:12:32.589Z,6.90
2018-03-11T21:15:01.237Z,6.90
2018-03-11T21:17:29.934Z,6.90
2018-03-11T21:19:58.592Z,7.00
2018-03-11T21:22:27.239Z,7.00
2018-03-11T21:24:56.651Z,6.90
2018-03-11T21:27:26.097Z,6.90
2018-03-11T21:29:54.744Z,6.90
2018-03-11T21:32:24.152Z,7.00
2018-03-11T21:34:53.580Z,6.90
2018-03-11T21:37:22.220Z,6.90
2018-03-11T21:39:50.852Z,6.90
2018-03-11T21:42:19.522Z,6.90
2018-03-11T21:44:48.185Z,6.80
2018-03-11T21:47:16.816Z,6.80
2018-03-11T21:49:45.590Z,6.70
2018-03-11T21:52:14.410Z,6.70
2018-03-11T21:54:43.051Z,6.80
2018-03-11T21:57:12.478Z,6.80
2018-03-11T21:59:41.114Z,6.80
2018-03-11T22:02:09.445Z,6.80
2018-03-11T22:04:38.096Z,6.90
2018-03-11T22:07:07.501Z,6.90
2018-03-11T22:09:36.961Z,6.80
2018-03-11T22:12:05.609Z,6.80
2018-03-11T22:14:34.245Z,6.80
2018-03-11T22:17:02.897Z,6.80
2018-03-11T22:19:31.547Z,6.90
2018-03-11T22:22:00.783Z,6.90
2018-03-11T22:24:29.449Z,6.90
2018-03-11T22:26:58.853Z,6.80
2018-03-11T22:29:28.301Z,6.80
2018-03-11T22:31:56.956Z,6.80
2018-03-11T22:34:25.590Z,6.80
2018-03-11T22:36:54.240Z,6.90
2018-03-11T22:39:22.895Z,6.90
2018-03-11T22:41:52.305Z,6.90
2018-03-11T22:44:20.951Z,6.80
2018-03-11T22:46:49.621Z,6.80
2018-03-11T22:49:18.284Z,6.60
2018-03-11T22:51:46.916Z,6.60
2018-03-11T22:54:15.557Z,6.70
2018-03-11T22:56:44.216Z,6.70
2018-03-11T22:59:13.620Z,6.80
2018-03-11T23:01:43.030Z,6.80
2018-03-11T23:04:11.702Z,6.80
2018-03-11T23:06:41.100Z,6.60
2018-03-11T23:09:09.733Z,6.70
2018-03-11T23:11:38.377Z,6.60
2018-03-11T23:14:07.455Z,6.60
2018-03-11T23:16:36.110Z,6.60
2018-03-11T23:19:15.816Z,6.60
2018-03-11T23:21:44.631Z,6.70
2018-03-11T23:24:13.290Z,6.70
2018-03-11T23:26:42.709Z,6.70
2018-03-11T23:29:11.341Z,6.70
2018-03-11T23:31:39.996Z,6.70
2018-03-11T23:34:08.644Z,6.70
2018-03-11T23:36:37.305Z,6.70
2018-03-11T23:39:05.948Z,6.70
2018-03-11T23:41:34.587Z,6.70
2018-03-11T23:44:03.249Z,6.70
2018-03-11T23:46:31.889Z,6.70
2018-03-11T23:49:01.394Z,6.80
2018-03-11T23:51:30.825Z,6.70
2018-03-11T23:53:59.591Z,6.70
2018-03-11T23:56:28.241Z,6.60
2018-03-11T23:58:56.905Z,6.70
